Pagrindinis puslapis
METAR-TAF:

METAR-TAF

Oro uostai :

Cape Lisburne, Aliaska, Jungtinės Amerikos Valstijos

platuma: 68-53N, ilguma: 166-06W, Aukštis: 4 m

Dabartinis oras

Ataskaita buvo paskelbta 9 minutes, ne 03:55 UTC
Vėjas 23 kt iš Rytų/Šiaurės Rytų
Temperatūra 6°C
Drėgmė 81%
Slėgis 1011 hPa
Matomumas: 16.1 km
Su prošvaistėmis ne aukštis 2000 ft

METAR: PALU 160355Z AUTO 06023KT 10SM BKN020 06/03 A2986 RMK AO2 PK WND 06028/0316 SLP110 T00610030

Laikas: 20:04 (04:04 UTC)


TAF: trūkstamas

Orai ataskaitas ir orų prognozės (METAR, TAF).

turimą stotys yra geltonos ir raudonos taškus žemėlapyje.

Perkelti pele per norėdami pamatyti stoties vardą.

Tada spustelėkite, norėdami matyti oro stebėjimo ir prognozės.

Norėdami pakeisti žemėlapį: spustelėkite ant žalios mygtukų su juodo kryžiaus žemyn,; žalią mygtuką su brūkšneliu, jei norite nutolinti; arba žalių rodyklių gretimoms žemėlapius.


METAR-TAF: